Aérodrome :
LOGIN :

S'inscrire | Disclaimer

   EN    FR    IT 

 










Légende :    VFR   VFR Marginal   IFR   IFR Intensif   IFR Très Intensif
Visi : 
Plafond : 
>= 8 km
>= 3000ft
5 à 8 km
1000 à 3000 ft
1500m à 5 km
500 à 1000 ft
800 à 1500m
200 à 500 ft
< 800m
< 200 ft
Symboles :   Orages  Brouillard  Fortes neiges  Fortes précipitations  Vent > 20 kt
SIGMETs :   Divers  Orages  Givrage  Turbulence  Onde Orograph.  Cendres Volcan.







- Altitude de l'aérodrome : 218 ft
- Code IATA : LBG
- Voir les cartes d'approche


LFPB - Paris / Le Bourget

DERNIER METAR :
  • 190330Z AUTO 11003KT 9000 FEW037 BKN180 BKN200 M00/M01 Q1021 TEMPO 4000 BR

METARs EXPIRÉS :
  • 190300Z AUTO 10004KT 9000 BKN036 OVC220 M00/M01 Q1021 TEMPO 4000 BR
  • 190230Z AUTO 10004KT 9999 FEW036 BKN180 BKN200 M00/M01 Q1021 TEMPO 4000 BR
  • 190200Z AUTO 10004KT CAVOK 00/M01 Q1021 TEMPO 4000 BR
  • 190130Z AUTO 12003KT CAVOK 00/M01 Q1021 TEMPO 4000 BR
  • 190100Z AUTO 10004KT 9000 NSC M00/M01 Q1021 TEMPO 4000 BR

TAF TAF LFPB
Valide du 19 à 00h jusqu'au 20 à 00h UTC


182300Z 1900/1924 15006KT CAVOK
PROB30
TEMPO 1902/1906 4000 BR
BECMG 1909/1911 BKN020
TEMPO 1911/1917 4000 -DZRA
BECMG 1913/1916 BKN008
TEMPO 1918/1924 SCT002 BKN004
ATIS : +33 1 48 62 43 92
Pas de NOTAMs connus pour ce terrain.



MET'MAP, la Météo Aéronautique d'un coup d'oeil ! - Copyright ORBIFLY Décembre 2007 - Disclaimer

ORBIFLY MET'MAP TEAM :

Programmation & Développement : Alexandra Zaïnal
Conception & Développement : Baudouin d'Aumeries
Co-Programmation & Développement : Marc-Olivier Méhu
Soutien technique & logistique : Manuel Goepfert

Contact : metmap@orbifly.com




SOURCES & CREDITS :

   NOAA